Dickel, Tennessee
Current Conditions -  °F | °C
As of 2:15 PM on Saturday 25 Oct 2014 (Local Time) from KTHA Reporting Station
Clear Clear  
Wind Chill: 73°   Ceiling: Unl
Heat Index: 73°   Visibility: 10mi
Dew Point: 57°   Wind: 8mph
Humidity: 57%   Direction: 230°SW
Pressure: 30.04"   Gusts: NA
Location:  35.3402°N, 86.229°W
Report Text: KTHA 251915Z AUTO 23007KT 10SM CLR 23/14 A3004 RMK
Loading
Personal Weather Stations






























Interactive Weather Map
Tropical Storm Tracking
New forecast layout! Learn more

10-Day Weather Forecast

Advertisements
Track Severe Weather on mobile